sensor_id;sensor_type;location;lat;lon;timestamp;pressure;altitude;pressure_sealevel;temperature;humidity
4449;BME280;2237;51.870;6.160;2023-02-12T00:00:48;103684.75;;;10.60;100.00
4449;BME280;2237;51.870;6.160;2023-02-12T00:03:14;103685.56;;;10.59;100.00
4449;BME280;2237;51.870;6.160;2023-02-12T00:05:41;103688.25;;;10.62;100.00
4449;BME280;2237;51.870;6.160;2023-02-12T00:08:08;103686.47;;;10.60;100.00
4449;BME280;2237;51.870;6.160;2023-02-12T00:10:40;103681.09;;;10.52;100.00
4449;BME280;2237;51.870;6.160;2023-02-12T00:13:09;103680.09;;;10.47;100.00
4449;BME280;2237;51.870;6.160;2023-02-12T00:15:40;103688.78;;;10.48;100.00
4449;BME280;2237;51.870;6.160;2023-02-12T00:18:06;103686.16;;;10.48;100.00
4449;BME280;2237;51.870;6.160;2023-02-12T00:20:33;103684.53;;;10.51;100.00
4449;BME280;2237;51.870;6.160;2023-02-12T00:22:59;103689.78;;;10.53;100.00
4449;BME280;2237;51.870;6.160;2023-02-12T00:25:26;103687.09;;;10.50;100.00
4449;BME280;2237;51.870;6.160;2023-02-12T00:27:52;103685.38;;;10.50;100.00
4449;BME280;2237;51.870;6.160;2023-02-12T00:30:18;103693.16;;;10.49;100.00
4449;BME280;2237;51.870;6.160;2023-02-12T00:32:45;103677.44;;;10.46;100.00
4449;BME280;2237;51.870;6.160;2023-02-12T00:35:11;103686.06;;;10.43;100.00
4449;BME280;2237;51.870;6.160;2023-02-12T00:37:38;103687.78;;;10.43;100.00
4449;BME280;2237;51.870;6.160;2023-02-12T00:40:05;103689.50;;;10.41;100.00
4449;BME280;2237;51.870;6.160;2023-02-12T00:42:32;103690.31;;;10.38;100.00
4449;BME280;2237;51.870;6.160;2023-02-12T00:44:58;103689.34;;;10.36;100.00
4449;BME280;2237;51.870;6.160;2023-02-12T00:47:24;103681.38;;;10.29;100.00
4449;BME280;2237;51.870;6.160;2023-02-12T00:49:51;103674.97;;;10.16;100.00
4449;BME280;2237;51.870;6.160;2023-02-12T00:52:17;103679.94;;;10.07;100.00
4449;BME280;2237;51.870;6.160;2023-02-12T00:54:43;103684.13;;;10.02;100.00
4449;BME280;2237;51.870;6.160;2023-02-12T00:57:10;103688.38;;;9.98;100.00
4449;BME280;2237;51.870;6.160;2023-02-12T00:59:36;103688.34;;;9.97;100.00
4449;BME280;2237;51.870;6.160;2023-02-12T01:02:05;103685.66;;;9.94;100.00
4449;BME280;2237;51.870;6.160;2023-02-12T01:04:31;103689.09;;;9.93;100.00
4449;BME280;2237;51.870;6.160;2023-02-12T01:06:58;103688.19;;;9.91;100.00
4449;BME280;2237;51.870;6.160;2023-02-12T01:09:24;103683.88;;;9.93;100.00
4449;BME280;2237;51.870;6.160;2023-02-12T01:11:50;103684.78;;;9.93;100.00
4449;BME280;2237;51.870;6.160;2023-02-12T01:14:17;103682.97;;;9.91;100.00
4449;BME280;2237;51.870;6.160;2023-02-12T01:16:43;103687.28;;;9.90;100.00
4449;BME280;2237;51.870;6.160;2023-02-12T01:19:11;103687.13;;;9.84;100.00
4449;BME280;2237;51.870;6.160;2023-02-12T01:21:37;103692.34;;;9.84;100.00
4449;BME280;2237;51.870;6.160;2023-02-12T01:24:04;103689.72;;;9.84;100.00
4449;BME280;2237;51.870;6.160;2023-02-12T01:26:31;103686.28;;;9.84;100.00
4449;BME280;2237;51.870;6.160;2023-02-12T01:29:00;103690.59;;;9.83;100.00
4449;BME280;2237;51.870;6.160;2023-02-12T01:31:32;103693.13;;;9.82;100.00
4449;BME280;2237;51.870;6.160;2023-02-12T01:33:59;103693.13;;;9.82;100.00
4449;BME280;2237;51.870;6.160;2023-02-12T01:36:27;103693.19;;;9.83;100.00
4449;BME280;2237;51.870;6.160;2023-02-12T01:38:55;103687.94;;;9.82;100.00
4449;BME280;2237;51.870;6.160;2023-02-12T01:41:28;103691.44;;;9.82;100.00
4449;BME280;2237;51.870;6.160;2023-02-12T01:44:20;103685.41;;;9.85;100.00
4449;BME280;2237;51.870;6.160;2023-02-12T01:46:49;103684.50;;;9.83;100.00
4449;BME280;2237;51.870;6.160;2023-02-12T01:49:29;103684.50;;;9.83;100.00
4449;BME280;2237;51.870;6.160;2023-02-12T01:52:01;103684.41;;;9.80;100.00
4449;BME280;2237;51.870;6.160;2023-02-12T01:54:30;103684.50;;;9.83;100.00
4449;BME280;2237;51.870;6.160;2023-02-12T01:56:59;103692.34;;;9.84;100.00
4449;BME280;2237;51.870;6.160;2023-02-12T01:59:27;103684.50;;;9.83;100.00
4449;BME280;2237;51.870;6.160;2023-02-12T02:01:54;103686.22;;;9.82;100.00
4449;BME280;2237;51.870;6.160;2023-02-12T02:04:25;103689.66;;;9.81;100.00
4449;BME280;2237;51.870;6.160;2023-02-12T02:09:23;103680.03;;;9.79;100.00
4449;BME280;2237;51.870;6.160;2023-02-12T02:11:50;103674.81;;;9.77;100.00
4449;BME280;2237;51.870;6.160;2023-02-12T02:14:37;103675.69;;;9.78;100.00
4449;BME280;2237;51.870;6.160;2023-02-12T02:22:40;103668.66;;;9.75;100.00
4449;BME280;2237;51.870;6.160;2023-02-12T02:31:40;103678.72;;;9.61;100.00
4449;BME280;2237;51.870;6.160;2023-02-12T02:34:33;103667.31;;;9.56;100.00
4449;BME280;2237;51.870;6.160;2023-02-12T02:39:50;103663.47;;;9.44;100.00
4449;BME280;2237;51.870;6.160;2023-02-12T02:42:25;103656.31;;;9.35;100.00
4449;BME280;2237;51.870;6.160;2023-02-12T02:44:54;103663.03;;;9.29;100.00
4449;BME280;2237;51.870;6.160;2023-02-12T02:47:27;103658.53;;;9.22;100.00
4449;BME280;2237;51.870;6.160;2023-02-12T02:50:00;103660.22;;;9.20;100.00
4449;BME280;2237;51.870;6.160;2023-02-12T02:52:38;103656.63;;;9.16;100.00
4449;BME280;2237;51.870;6.160;2023-02-12T02:55:07;103658.16;;;9.08;100.00
4449;BME280;2237;51.870;6.160;2023-02-12T02:57:50;103660.66;;;9.05;100.00
4449;BME280;2237;51.870;6.160;2023-02-12T03:00:25;103658.84;;;9.02;100.00
4449;BME280;2237;51.870;6.160;2023-02-12T03:02:59;103650.06;;;8.99;100.00
4449;BME280;2237;51.870;6.160;2023-02-12T03:05:31;103661.38;;;9.01;100.00
4449;BME280;2237;51.870;6.160;2023-02-12T03:08:04;103658.84;;;9.02;100.00
4449;BME280;2237;51.870;6.160;2023-02-12T03:10:36;103659.69;;;9.01;100.00
4449;BME280;2237;51.870;6.160;2023-02-12T03:13:20;103666.66;;;9.02;100.00
4449;BME280;2237;51.870;6.160;2023-02-12T03:15:50;103658.78;;;9.01;100.00
4449;BME280;2237;51.870;6.160;2023-02-12T03:18:46;103650.97;;;8.99;100.00
4449;BME280;2237;51.870;6.160;2023-02-12T03:21:14;103667.38;;;8.98;100.00
4449;BME280;2237;51.870;6.160;2023-02-12T03:23:51;103666.47;;;8.96;100.00
4449;BME280;2237;51.870;6.160;2023-02-12T03:26:28;103666.47;;;8.96;100.00
4449;BME280;2237;51.870;6.160;2023-02-12T03:28:58;103662.97;;;8.96;100.00
4449;BME280;2237;51.870;6.160;2023-02-12T03:31:40;103668.22;;;8.97;100.00
4449;BME280;2237;51.870;6.160;2023-02-12T03:37:15;103665.59;;;8.97;100.00
4449;BME280;2237;51.870;6.160;2023-02-12T03:39:53;103666.31;;;8.92;100.00
4449;BME280;2237;51.870;6.160;2023-02-12T03:45:28;103666.28;;;8.90;100.00
4449;BME280;2237;51.870;6.160;2023-02-12T03:50:53;103670.59;;;8.90;100.00
4449;BME280;2237;51.870;6.160;2023-02-12T03:53:24;103676.59;;;8.87;100.00
4449;BME280;2237;51.870;6.160;2023-02-12T03:56:04;103664.47;;;8.88;100.00
4449;BME280;2237;51.870;6.160;2023-02-12T03:58:34;103673.19;;;8.90;100.00
4449;BME280;2237;51.870;6.160;2023-02-12T04:01:02;103672.28;;;8.88;100.00
4449;BME280;2237;51.870;6.160;2023-02-12T04:03:30;103674.91;;;8.89;100.00
4449;BME280;2237;51.870;6.160;2023-02-12T04:05:56;103676.72;;;8.92;100.00
4449;BME280;2237;51.870;6.160;2023-02-12T04:08:24;103674.19;;;8.95;100.00
4449;BME280;2237;51.870;6.160;2023-02-12T04:11:17;103672.59;;;8.98;100.00
4449;BME280;2237;51.870;6.160;2023-02-12T04:16:42;103674.28;;;8.98;100.00
4449;BME280;2237;51.870;6.160;2023-02-12T04:19:14;103683.00;;;9.00;100.00
4449;BME280;2237;51.870;6.160;2023-02-12T04:21:52;103685.88;;;9.09;100.00
4449;BME280;2237;51.870;6.160;2023-02-12T04:24:35;103685.66;;;9.01;100.00
4449;BME280;2237;51.870;6.160;2023-02-12T04:27:19;103684.88;;;9.04;100.00
4449;BME280;2237;51.870;6.160;2023-02-12T04:29:56;103692.75;;;9.07;100.00
4449;BME280;2237;51.870;6.160;2023-02-12T04:35:01;103693.66;;;9.07;100.00
4449;BME280;2237;51.870;6.160;2023-02-12T04:37:35;103699.84;;;9.11;100.00
4449;BME280;2237;51.870;6.160;2023-02-12T04:40:05;103701.66;;;9.15;100.00
4449;BME280;2237;51.870;6.160;2023-02-12T04:42:46;103705.19;;;9.17;100.00
4449;BME280;2237;51.870;6.160;2023-02-12T04:45:19;103705.28;;;9.20;100.00
4449;BME280;2237;51.870;6.160;2023-02-12T04:47:47;103708.81;;;9.22;100.00
4449;BME280;2237;51.870;6.160;2023-02-12T04:50:14;103717.53;;;9.24;100.00
4449;BME280;2237;51.870;6.160;2023-02-12T04:52:40;103717.59;;;9.26;100.00
4449;BME280;2237;51.870;6.160;2023-02-12T04:55:06;103715.91;;;9.28;100.00
4449;BME280;2237;51.870;6.160;2023-02-12T04:57:33;103715.84;;;9.26;100.00
4449;BME280;2237;51.870;6.160;2023-02-12T04:59:59;103719.41;;;9.28;100.00
4449;BME280;2237;51.870;6.160;2023-02-12T05:02:26;103714.28;;;9.31;100.00
4449;BME280;2237;51.870;6.160;2023-02-12T05:04:52;103714.38;;;9.34;100.00
4449;BME280;2237;51.870;6.160;2023-02-12T05:07:18;103715.16;;;9.32;100.00
4449;BME280;2237;51.870;6.160;2023-02-12T05:09:45;103711.63;;;9.30;100.00
4449;BME280;2237;51.870;6.160;2023-02-12T05:12:11;103711.72;;;9.33;100.00
4449;BME280;2237;51.870;6.160;2023-02-12T05:14:37;103714.31;;;9.33;100.00
4449;BME280;2237;51.870;6.160;2023-02-12T05:17:04;103710.94;;;9.35;100.00
4449;BME280;2237;51.870;6.160;2023-02-12T05:19:30;103712.69;;;9.36;100.00
4449;BME280;2237;51.870;6.160;2023-02-12T05:21:57;103711.88;;;9.37;100.00
4449;BME280;2237;51.870;6.160;2023-02-12T05:24:23;103709.31;;;9.40;100.00
4449;BME280;2237;51.870;6.160;2023-02-12T05:26:50;103709.31;;;9.40;100.00
4449;BME280;2237;51.870;6.160;2023-02-12T05:29:17;103714.69;;;9.45;100.00
4449;BME280;2237;51.870;6.160;2023-02-12T05:31:43;103719.97;;;9.48;100.00
4449;BME280;2237;51.870;6.160;2023-02-12T05:34:11;103719.09;;;9.47;100.00
4449;BME280;2237;51.870;6.160;2023-02-12T05:36:38;103721.66;;;9.46;100.00
4449;BME280;2237;51.870;6.160;2023-02-12T05:39:05;103719.06;;;9.46;100.00
4449;BME280;2237;51.870;6.160;2023-02-12T05:41:32;103719.09;;;9.47;100.00
4449;BME280;2237;51.870;6.160;2023-02-12T05:44:01;103721.69;;;9.47;100.00
4449;BME280;2237;51.870;6.160;2023-02-12T05:46:27;103718.16;;;9.45;100.00
4449;BME280;2237;51.870;6.160;2023-02-12T05:48:54;103720.78;;;9.45;100.00
4449;BME280;2237;51.870;6.160;2023-02-12T05:51:22;103728.59;;;9.47;100.00
4449;BME280;2237;51.870;6.160;2023-02-12T05:54:00;103726.06;;;9.48;100.00
4449;BME280;2237;51.870;6.160;2023-02-12T05:56:31;103720.84;;;9.48;100.00
4449;BME280;2237;51.870;6.160;2023-02-12T05:59:00;103726.16;;;9.51;100.00
4449;BME280;2237;51.870;6.160;2023-02-12T06:01:31;103713.13;;;9.51;100.00
4449;BME280;2237;51.870;6.160;2023-02-12T06:03:59;103719.25;;;9.53;100.00
4449;BME280;2237;51.870;6.160;2023-02-12T06:06:27;103718.38;;;9.53;100.00
4449;BME280;2237;51.870;6.160;2023-02-12T06:08:54;103722.66;;;9.51;100.00
4449;BME280;2237;51.870;6.160;2023-02-12T06:11:21;103733.09;;;9.52;100.00
4449;BME280;2237;51.870;6.160;2023-02-12T06:13:48;103729.59;;;9.52;100.00
4449;BME280;2237;51.870;6.160;2023-02-12T06:16:19;103727.00;;;9.52;100.00
4449;BME280;2237;51.870;6.160;2023-02-12T06:18:46;103733.94;;;9.51;100.00
4449;BME280;2237;51.870;6.160;2023-02-12T06:21:12;103739.19;;;9.53;100.00
4449;BME280;2237;51.870;6.160;2023-02-12T06:23:39;103740.09;;;9.55;100.00
4449;BME280;2237;51.870;6.160;2023-02-12T06:26:05;103736.72;;;9.57;100.00
4449;BME280;2237;51.870;6.160;2023-02-12T06:28:32;103728.94;;;9.59;100.00
4449;BME280;2237;51.870;6.160;2023-02-12T06:30:58;103742.78;;;9.58;100.00
4449;BME280;2237;51.870;6.160;2023-02-12T06:33:25;103736.63;;;9.54;100.00
4449;BME280;2237;51.870;6.160;2023-02-12T06:35:51;103735.84;;;9.57;100.00
4449;BME280;2237;51.870;6.160;2023-02-12T06:38:17;103743.59;;;9.55;100.00
4449;BME280;2237;51.870;6.160;2023-02-12T06:40:44;103738.38;;;9.55;100.00
4449;BME280;2237;51.870;6.160;2023-02-12T06:43:10;103742.75;;;9.56;100.00
4449;BME280;2237;51.870;6.160;2023-02-12T06:45:37;103753.16;;;9.56;100.00
4449;BME280;2237;51.870;6.160;2023-02-12T06:48:03;103743.50;;;9.52;100.00
4449;BME280;2237;51.870;6.160;2023-02-12T06:50:30;103750.50;;;9.55;100.00
4449;BME280;2237;51.870;6.160;2023-02-12T06:52:58;103743.56;;;9.54;100.00
4449;BME280;2237;51.870;6.160;2023-02-12T06:55:24;103741.78;;;9.53;100.00
4449;BME280;2237;51.870;6.160;2023-02-12T06:57:50;103746.97;;;9.51;100.00
4449;BME280;2237;51.870;6.160;2023-02-12T07:00:17;103749.56;;;9.51;100.00
4449;BME280;2237;51.870;6.160;2023-02-12T07:02:44;103755.72;;;9.55;100.00
4449;BME280;2237;51.870;6.160;2023-02-12T07:05:10;103760.16;;;9.57;100.00
4449;BME280;2237;51.870;6.160;2023-02-12T07:07:36;103764.56;;;9.61;100.00
4449;BME280;2237;51.870;6.160;2023-02-12T07:10:03;103758.56;;;9.64;100.00
4449;BME280;2237;51.870;6.160;2023-02-12T07:12:29;103765.66;;;9.68;100.00
4449;BME280;2237;51.870;6.160;2023-02-12T07:14:55;103760.38;;;9.66;100.00
4449;BME280;2237;51.870;6.160;2023-02-12T07:17:22;103766.47;;;9.67;100.00
4449;BME280;2237;51.870;6.160;2023-02-12T07:19:48;103758.63;;;9.65;100.00
4449;BME280;2237;51.870;6.160;2023-02-12T07:22:14;103764.72;;;9.66;100.00
4449;BME280;2237;51.870;6.160;2023-02-12T07:24:41;103765.72;;;9.71;100.00
4449;BME280;2237;51.870;6.160;2023-02-12T07:27:08;103775.34;;;9.74;100.00
4449;BME280;2237;51.870;6.160;2023-02-12T07:29:34;103771.91;;;9.75;100.00
4449;BME280;2237;51.870;6.160;2023-02-12T07:32:01;103776.44;;;9.82;100.00
4449;BME280;2237;51.870;6.160;2023-02-12T07:34:27;103772.22;;;9.87;100.00
4449;BME280;2237;51.870;6.160;2023-02-12T07:36:54;103770.56;;;9.89;100.00
4449;BME280;2237;51.870;6.160;2023-02-12T07:39:20;103781.97;;;9.94;100.00
4449;BME280;2237;51.870;6.160;2023-02-12T07:41:46;103783.84;;;9.98;100.00
4449;BME280;2237;51.870;6.160;2023-02-12T07:44:13;103787.28;;;9.98;100.00
4449;BME280;2237;51.870;6.160;2023-02-12T07:46:41;103784.66;;;9.97;100.00
4449;BME280;2237;51.870;6.160;2023-02-12T07:49:14;103777.66;;;9.94;100.00
4449;BME280;2237;51.870;6.160;2023-02-12T07:51:40;103777.59;;;9.93;100.00
4449;BME280;2237;51.870;6.160;2023-02-12T07:54:07;103782.16;;;10.00;100.00
4449;BME280;2237;51.870;6.160;2023-02-12T07:56:35;103779.75;;;10.07;100.00
4449;BME280;2237;51.870;6.160;2023-02-12T07:59:05;103785.91;;;10.11;100.00
4449;BME280;2237;51.870;6.160;2023-02-12T08:01:33;103779.88;;;10.12;100.00
4449;BME280;2237;51.870;6.160;2023-02-12T08:04:12;103788.72;;;10.17;100.00
4449;BME280;2237;51.870;6.160;2023-02-12T08:06:44;103778.31;;;10.17;100.00
4449;BME280;2237;51.870;6.160;2023-02-12T08:09:13;103793.25;;;10.24;100.00
4449;BME280;2237;51.870;6.160;2023-02-12T08:11:41;103795.09;;;10.28;100.00
4449;BME280;2237;51.870;6.160;2023-02-12T08:14:10;103799.56;;;10.32;100.00
4449;BME280;2237;51.870;6.160;2023-02-12T08:16:38;103795.19;;;10.31;100.00
4449;BME280;2237;51.870;6.160;2023-02-12T08:19:05;103801.34;;;10.35;100.00
4449;BME280;2237;51.870;6.160;2023-02-12T08:21:45;103810.16;;;10.40;100.00
4449;BME280;2237;51.870;6.160;2023-02-12T08:24:14;103810.22;;;10.41;100.00
4449;BME280;2237;51.870;6.160;2023-02-12T08:26:40;103807.59;;;10.41;100.00
4449;BME280;2237;51.870;6.160;2023-02-12T08:29:12;103808.59;;;10.46;100.00
4449;BME280;2237;51.870;6.160;2023-02-12T08:31:42;103812.25;;;10.53;100.00
4449;BME280;2237;51.870;6.160;2023-02-12T08:34:18;103811.59;;;10.61;100.00
4449;BME280;2237;51.870;6.160;2023-02-12T08:36:46;103813.56;;;10.70;100.00
4449;BME280;2237;51.870;6.160;2023-02-12T08:39:12;103815.38;;;10.74;100.00
4449;BME280;2237;51.870;6.160;2023-02-12T08:41:39;103815.44;;;10.77;100.00
4449;BME280;2237;51.870;6.160;2023-02-12T08:44:08;103813.88;;;10.84;100.00
4449;BME280;2237;51.870;6.160;2023-02-12T08:46:37;103823.47;;;10.85;100.00
4449;BME280;2237;51.870;6.160;2023-02-12T08:49:06;103824.63;;;10.97;100.00
4449;BME280;2237;51.870;6.160;2023-02-12T08:51:37;103821.03;;;10.92;100.00
4449;BME280;2237;51.870;6.160;2023-02-12T08:54:05;103823.72;;;10.94;100.00
4449;BME280;2237;51.870;6.160;2023-02-12T08:56:33;103817.69;;;10.98;100.00
4449;BME280;2237;51.870;6.160;2023-02-12T08:59:03;103823.84;;;11.00;100.00
4449;BME280;2237;51.870;6.160;2023-02-12T09:01:31;103833.47;;;11.02;100.00
4449;BME280;2237;51.870;6.160;2023-02-12T09:03:59;103840.50;;;11.05;100.00
4449;BME280;2237;51.870;6.160;2023-02-12T09:06:26;103831.78;;;11.06;100.00
4449;BME280;2237;51.870;6.160;2023-02-12T09:08:53;103838.03;;;11.12;100.00
4449;BME280;2237;51.870;6.160;2023-02-12T09:11:22;103834.63;;;11.15;100.00
4449;BME280;2237;51.870;6.160;2023-02-12T09:13:51;103839.00;;;11.14;100.00
4449;BME280;2237;51.870;6.160;2023-02-12T09:16:18;103840.72;;;11.14;100.00
4449;BME280;2237;51.870;6.160;2023-02-12T09:18:44;103841.63;;;11.17;100.00
4449;BME280;2237;51.870;6.160;2023-02-12T09:21:13;103851.28;;;11.20;100.00
4449;BME280;2237;51.870;6.160;2023-02-12T09:23:43;103848.75;;;11.23;100.00
4449;BME280;2237;51.870;6.160;2023-02-12T09:26:13;103854.00;;;11.24;100.00
4449;BME280;2237;51.870;6.160;2023-02-12T09:28:40;103853.47;;;11.39;100.00
4449;BME280;2237;51.870;6.160;2023-02-12T09:31:12;103854.03;;;11.26;100.00
4449;BME280;2237;51.870;6.160;2023-02-12T09:33:40;103854.81;;;11.23;100.00
4449;BME280;2237;51.870;6.160;2023-02-12T09:36:17;103853.97;;;11.23;100.00
4449;BME280;2237;51.870;6.160;2023-02-12T09:38:43;103847.97;;;11.27;100.00
4449;BME280;2237;51.870;6.160;2023-02-12T09:44:28;103842.88;;;11.33;100.00
4449;BME280;2237;51.870;6.160;2023-02-12T09:50:11;103844.75;;;11.39;100.00
4449;BME280;2237;51.870;6.160;2023-02-12T09:52:42;103845.66;;;11.41;100.00
4449;BME280;2237;51.870;6.160;2023-02-12T09:55:16;103843.16;;;11.45;100.00
4449;BME280;2237;51.870;6.160;2023-02-12T09:57:45;103845.78;;;11.47;100.00
4449;BME280;2237;51.870;6.160;2023-02-12T10:00:22;103857.19;;;11.50;100.00
4449;BME280;2237;51.870;6.160;2023-02-12T10:02:52;103851.81;;;11.44;100.00
4449;BME280;2237;51.870;6.160;2023-02-12T10:05:32;103856.16;;;11.44;100.00
4449;BME280;2237;51.870;6.160;2023-02-12T10:27:15;103843.63;;;11.66;100.00
4449;BME280;2237;51.870;6.160;2023-02-12T10:29:44;103842.78;;;11.67;100.00
4449;BME280;2237;51.870;6.160;2023-02-12T10:32:23;103844.78;;;11.77;100.00
4449;BME280;2237;51.870;6.160;2023-02-12T10:34:52;103837.81;;;11.78;100.00
4449;BME280;2237;51.870;6.160;2023-02-12T10:38:04;103842.22;;;11.80;100.00
4449;BME280;2237;51.870;6.160;2023-02-12T10:40:30;103843.50;;;12.01;100.00
4449;BME280;2237;51.870;6.160;2023-02-12T10:43:00;103843.44;;;11.98;100.00
4449;BME280;2237;51.870;6.160;2023-02-12T10:45:36;103842.88;;;12.14;100.00
4449;BME280;2237;51.870;6.160;2023-02-12T10:48:29;103839.38;;;12.12;100.00
4449;BME280;2237;51.870;6.160;2023-02-12T10:53:35;103837.34;;;12.42;100.00
4449;BME280;2237;51.870;6.160;2023-02-12T10:56:11;103840.16;;;12.54;100.00
4449;BME280;2237;51.870;6.160;2023-02-12T10:58:50;103839.44;;;12.63;100.00
4449;BME280;2237;51.870;6.160;2023-02-12T11:01:26;103835.25;;;12.71;100.00
4449;BME280;2237;51.870;6.160;2023-02-12T11:03:55;103832.72;;;12.77;100.00
4449;BME280;2237;51.870;6.160;2023-02-12T11:06:27;103833.94;;;12.98;100.00
4449;BME280;2237;51.870;6.160;2023-02-12T11:08:56;103832.31;;;13.07;100.00
4449;BME280;2237;51.870;6.160;2023-02-12T11:11:30;103831.41;;;13.03;100.00
4449;BME280;2237;51.870;6.160;2023-02-12T11:14:15;103827.25;;;13.16;100.00
4449;BME280;2237;51.870;6.160;2023-02-12T11:16:58;103837.16;;;13.36;100.00
4449;BME280;2237;51.870;6.160;2023-02-12T11:19:29;103834.44;;;13.29;100.00
4449;BME280;2237;51.870;6.160;2023-02-12T11:22:09;103832.50;;;13.16;100.00
4449;BME280;2237;51.870;6.160;2023-02-12T11:24:39;103824.63;;;13.16;100.00
4449;BME280;2237;51.870;6.160;2023-02-12T11:29:46;103831.56;;;13.12;100.00
4449;BME280;2237;51.870;6.160;2023-02-12T11:32:18;103826.19;;;13.06;100.00
4449;BME280;2237;51.870;6.160;2023-02-12T11:37:31;103825.34;;;13.06;100.00
4449;BME280;2237;51.870;6.160;2023-02-12T11:39:58;103822.03;;;13.16;99.37
4449;BME280;2237;51.870;6.160;2023-02-12T11:42:33;103813.50;;;13.30;100.00
4449;BME280;2237;51.870;6.160;2023-02-12T11:45:00;103818.56;;;13.17;97.31
4449;BME280;2237;51.870;6.160;2023-02-12T11:47:29;103810.44;;;13.00;95.82
4449;BME280;2237;51.870;6.160;2023-02-12T11:50:08;103820.19;;;13.09;97.72
4449;BME280;2237;51.870;6.160;2023-02-12T11:52:41;103820.28;;;13.15;98.17
4449;BME280;2237;51.870;6.160;2023-02-12T11:55:29;103806.84;;;12.95;99.32
4449;BME280;2237;51.870;6.160;2023-02-12T11:58:15;103810.34;;;12.94;99.89
4449;BME280;2237;51.870;6.160;2023-02-12T12:00:54;103814.81;;;13.02;100.00
4449;BME280;2237;51.870;6.160;2023-02-12T12:03:27;103806.22;;;13.10;99.39
4449;BME280;2237;51.870;6.160;2023-02-12T12:06:00;103800.38;;;13.26;97.81
4449;BME280;2237;51.870;6.160;2023-02-12T12:08:43;103808.44;;;13.44;95.46
4449;BME280;2237;51.870;6.160;2023-02-12T12:11:33;103800.75;;;13.54;95.25
4449;BME280;2237;51.870;6.160;2023-02-12T12:14:07;103797.31;;;13.58;93.44
4449;BME280;2237;51.870;6.160;2023-02-12T12:16:42;103797.25;;;13.55;92.65
4449;BME280;2237;51.870;6.160;2023-02-12T12:19:37;103792.78;;;13.47;93.64
4449;BME280;2237;51.870;6.160;2023-02-12T12:22:27;103796.22;;;13.41;93.47
4449;BME280;2237;51.870;6.160;2023-02-12T12:25:03;103789.25;;;13.42;94.78
4449;BME280;2237;51.870;6.160;2023-02-12T12:33:25;103775.13;;;13.31;94.63
4449;BME280;2237;51.870;6.160;2023-02-12T12:58:43;103766.09;;;13.08;96.71
4449;BME280;2237;51.870;6.160;2023-02-12T13:01:27;103754.78;;;13.10;96.47
4449;BME280;2237;51.870;6.160;2023-02-12T13:07:18;103761.19;;;12.73;95.76
4449;BME280;2237;51.870;6.160;2023-02-12T13:13:08;103741.94;;;12.70;99.24
4449;BME280;2237;51.870;6.160;2023-02-12T13:23:50;103744.66;;;12.77;99.72
4449;BME280;2237;51.870;6.160;2023-02-12T13:26:49;103746.53;;;12.86;100.00
4449;BME280;2237;51.870;6.160;2023-02-12T13:29:37;103746.53;;;12.84;100.00
4449;BME280;2237;51.870;6.160;2023-02-12T13:32:18;103740.50;;;12.90;100.00
4449;BME280;2237;51.870;6.160;2023-02-12T13:34:47;103730.13;;;12.97;100.00
4449;BME280;2237;51.870;6.160;2023-02-12T13:37:17;103737.94;;;12.94;98.92
4449;BME280;2237;51.870;6.160;2023-02-12T13:39:47;103739.66;;;12.92;98.76
4449;BME280;2237;51.870;6.160;2023-02-12T13:45:14;103738.47;;;12.71;98.40
4449;BME280;2237;51.870;6.160;2023-02-12T13:48:02;103734.88;;;12.64;98.84
4449;BME280;2237;51.870;6.160;2023-02-12T13:50:54;103733.91;;;12.56;99.89
4449;BME280;2237;51.870;6.160;2023-02-12T13:53:43;103726.88;;;12.54;100.00
4449;BME280;2237;51.870;6.160;2023-02-12T13:58:54;103728.34;;;12.38;100.00
4449;BME280;2237;51.870;6.160;2023-02-12T14:01:37;103729.31;;;12.41;100.00
4449;BME280;2237;51.870;6.160;2023-02-12T14:07:10;103724.91;;;12.40;100.00
4449;BME280;2237;51.870;6.160;2023-02-12T14:14:54;103731.91;;;12.43;100.00
4449;BME280;2237;51.870;6.160;2023-02-12T14:28:06;103715.34;;;12.42;100.00
4449;BME280;2237;51.870;6.160;2023-02-12T14:30:39;103724.03;;;12.40;100.00
4449;BME280;2237;51.870;6.160;2023-02-12T14:35:39;103716.09;;;12.34;100.00
4449;BME280;2237;51.870;6.160;2023-02-12T14:40:43;103714.13;;;12.21;100.00
4449;BME280;2237;51.870;6.160;2023-02-12T14:43:27;103715.97;;;12.26;100.00
4449;BME280;2237;51.870;6.160;2023-02-12T14:45:57;103721.25;;;12.29;100.00
4449;BME280;2237;51.870;6.160;2023-02-12T14:51:15;103715.13;;;12.29;100.00
4449;BME280;2237;51.870;6.160;2023-02-12T14:53:43;103709.75;;;12.20;100.00
4449;BME280;2237;51.870;6.160;2023-02-12T14:56:12;103716.81;;;12.24;100.00
4449;BME280;2237;51.870;6.160;2023-02-12T14:58:38;103717.75;;;12.29;100.00
4449;BME280;2237;51.870;6.160;2023-02-12T15:01:05;103702.97;;;12.29;100.00
4449;BME280;2237;51.870;6.160;2023-02-12T15:03:51;103712.47;;;12.26;100.00
4449;BME280;2237;51.870;6.160;2023-02-12T15:06:27;103712.47;;;12.24;100.00
4449;BME280;2237;51.870;6.160;2023-02-12T15:09:05;103709.78;;;12.21;100.00
4449;BME280;2237;51.870;6.160;2023-02-12T15:11:54;103712.50;;;12.27;100.00
4449;BME280;2237;51.870;6.160;2023-02-12T15:14:24;103710.69;;;12.25;100.00
4449;BME280;2237;51.870;6.160;2023-02-12T15:17:02;103708.91;;;12.22;100.00
4449;BME280;2237;51.870;6.160;2023-02-12T15:22:38;103699.50;;;12.32;100.00
4449;BME280;2237;51.870;6.160;2023-02-12T15:28:03;103692.56;;;12.32;100.00
4449;BME280;2237;51.870;6.160;2023-02-12T15:30:35;103696.09;;;12.36;100.00
4449;BME280;2237;51.870;6.160;2023-02-12T15:33:06;103696.06;;;12.34;100.00
4449;BME280;2237;51.870;6.160;2023-02-12T15:35:35;103698.69;;;12.34;100.00
4449;BME280;2237;51.870;6.160;2023-02-12T15:38:03;103694.34;;;12.35;100.00
4449;BME280;2237;51.870;6.160;2023-02-12T15:40:32;103699.63;;;12.38;100.00
4449;BME280;2237;51.870;6.160;2023-02-12T15:43:02;103690.88;;;12.37;100.00
4449;BME280;2237;51.870;6.160;2023-02-12T15:45:31;103695.28;;;12.40;100.00
4449;BME280;2237;51.870;6.160;2023-02-12T15:48:12;103689.22;;;12.41;100.00
4449;BME280;2237;51.870;6.160;2023-02-12T15:50:54;103690.84;;;12.34;100.00
4449;BME280;2237;51.870;6.160;2023-02-12T15:53:23;103693.59;;;12.45;100.00
4449;BME280;2237;51.870;6.160;2023-02-12T15:55:51;103688.22;;;12.34;100.00